createdAt,value
2018-06-14T00:00:18.011Z,12.60
2018-06-14T00:01:21.342Z,12.60
2018-06-14T00:02:24.847Z,12.50
2018-06-14T00:03:28.219Z,12.40
2018-06-14T00:04:31.563Z,12.30
2018-06-14T00:05:34.900Z,12.30
2018-06-14T00:07:42.080Z,12.20
2018-06-14T00:09:48.527Z,12.20
2018-06-14T00:10:51.857Z,12.20
2018-06-14T00:11:55.176Z,12.20
2018-06-14T00:12:58.536Z,12.10
2018-06-14T00:14:01.909Z,12.20
2018-06-14T00:15:06.191Z,12.20
2018-06-14T00:16:09.567Z,12.10
2018-06-14T00:17:12.886Z,12.20
2018-06-14T00:18:16.257Z,12.30
2018-06-14T00:19:19.583Z,12.30
2018-06-14T00:20:22.956Z,12.40
2018-06-14T00:21:26.286Z,12.40
2018-06-14T00:22:29.760Z,12.50
2018-06-14T00:23:33.115Z,12.50
2018-06-14T00:24:36.462Z,12.40
2018-06-14T00:25:39.809Z,12.40
2018-06-14T00:26:43.139Z,12.40
2018-06-14T00:27:46.716Z,12.40
2018-06-14T00:28:50.035Z,12.40
2018-06-14T00:29:54.262Z,12.40
2018-06-14T00:30:57.635Z,12.40
2018-06-14T00:32:00.956Z,12.40
2018-06-14T00:33:04.331Z,12.30
2018-06-14T00:34:07.667Z,12.20
2018-06-14T00:35:11.015Z,12.10
2018-06-14T00:36:14.435Z,12.00
2018-06-14T00:37:17.765Z,12.00
2018-06-14T00:38:21.100Z,12.10
2018-06-14T00:39:24.433Z,12.10
2018-06-14T00:40:27.780Z,12.10
2018-06-14T00:41:31.161Z,12.20
2018-06-14T00:42:34.516Z,12.10
2018-06-14T00:43:37.907Z,12.10
2018-06-14T00:44:41.255Z,12.10
2018-06-14T00:45:44.590Z,12.10
2018-06-14T00:46:47.927Z,12.10
2018-06-14T00:47:51.311Z,12.20
2018-06-14T00:48:54.799Z,12.10
2018-06-14T00:49:58.156Z,12.20
2018-06-14T00:51:01.480Z,12.10
2018-06-14T00:52:04.804Z,12.20
2018-06-14T00:53:08.179Z,12.10
2018-06-14T00:54:11.496Z,12.10
2018-06-14T00:55:14.811Z,12.10
2018-06-14T00:56:18.138Z,12.10
2018-06-14T00:57:26.340Z,12.00
2018-06-14T00:58:29.713Z,11.90
2018-06-14T00:59:33.034Z,11.90
2018-06-14T01:00:36.412Z,11.90
2018-06-14T01:01:39.742Z,11.80
2018-06-14T01:02:43.075Z,11.80
2018-06-14T01:03:46.624Z,11.80
2018-06-14T01:04:50.241Z,11.80
2018-06-14T01:05:53.550Z,11.80
2018-06-14T01:06:56.912Z,11.80
2018-06-14T01:08:00.229Z,11.80
2018-06-14T01:09:05.635Z,11.80
2018-06-14T01:10:09.019Z,11.80
2018-06-14T01:11:12.331Z,11.70
2018-06-14T01:12:15.696Z,11.70
2018-06-14T01:14:22.093Z,11.70
2018-06-14T01:15:25.428Z,11.60
2018-06-14T01:16:28.740Z,11.50
2018-06-14T01:17:32.141Z,11.50
2018-06-14T01:18:35.510Z,11.40
2018-06-14T01:20:41.997Z,11.40
2018-06-14T01:21:45.361Z,11.30
2018-06-14T01:22:48.891Z,11.20
2018-06-14T01:23:52.211Z,11.20
2018-06-14T01:24:55.539Z,11.30
2018-06-14T01:25:58.903Z,11.30
2018-06-14T01:27:06.464Z,11.30
2018-06-14T01:28:09.814Z,11.20
2018-06-14T01:29:13.154Z,11.20
2018-06-14T01:30:16.476Z,11.30
2018-06-14T01:31:19.818Z,11.30
2018-06-14T01:32:23.158Z,11.30
2018-06-14T01:33:26.513Z,11.40
2018-06-14T01:34:29.835Z,11.40
2018-06-14T01:35:33.155Z,11.40
2018-06-14T01:36:36.483Z,11.30
2018-06-14T01:37:51.293Z,11.30
2018-06-14T01:38:54.640Z,11.30
2018-06-14T01:39:57.987Z,11.30
2018-06-14T01:41:01.323Z,11.30
2018-06-14T01:42:04.680Z,11.30
2018-06-14T01:43:08.022Z,11.30
2018-06-14T01:44:11.364Z,11.30
2018-06-14T01:45:14.697Z,11.30
2018-06-14T01:46:18.033Z,11.30
2018-06-14T01:47:21.363Z,11.30
2018-06-14T01:48:24.726Z,11.20
2018-06-14T01:49:28.047Z,11.20
2018-06-14T01:50:31.366Z,11.20
2018-06-14T01:51:34.729Z,11.20
2018-06-14T01:52:38.066Z,11.20
2018-06-14T01:53:41.391Z,11.20
2018-06-14T01:54:44.784Z,11.20
2018-06-14T01:55:48.152Z,11.20
2018-06-14T01:57:54.530Z,11.10
2018-06-14T01:58:57.843Z,11.10
2018-06-14T02:00:01.160Z,11.10
2018-06-14T02:01:04.514Z,11.10
2018-06-14T02:02:07.831Z,11.10
2018-06-14T02:03:11.164Z,11.10
2018-06-14T02:04:14.514Z,11.00
2018-06-14T02:52:36.731Z,11.10
2018-06-14T02:53:40.115Z,11.10
2018-06-14T02:54:43.484Z,11.20
2018-06-14T02:55:47.555Z,11.20
2018-06-14T02:56:50.896Z,11.30
2018-06-14T02:57:54.301Z,11.30
2018-06-14T02:58:57.626Z,11.40
2018-06-14T03:00:00.988Z,11.40
2018-06-14T03:01:04.343Z,11.50
2018-06-14T03:02:07.958Z,11.50
2018-06-14T03:03:11.328Z,11.60
2018-06-14T03:04:14.691Z,11.60
2018-06-14T03:05:18.035Z,11.50
2018-06-14T03:06:21.365Z,11.50
2018-06-14T03:07:30.190Z,11.50
2018-06-14T03:08:33.543Z,11.50
2018-06-14T03:09:36.916Z,11.50
2018-06-14T03:10:40.232Z,11.50
2018-06-14T03:11:43.552Z,11.40
2018-06-14T03:12:47.119Z,11.40
2018-06-14T03:13:50.451Z,11.30
2018-06-14T03:14:54.032Z,11.20
2018-06-14T03:15:57.351Z,11.10
2018-06-14T03:17:00.742Z,11.20
2018-06-14T03:18:04.085Z,11.20
2018-06-14T03:19:07.468Z,11.20
2018-06-14T03:20:10.846Z,11.20
2018-06-14T03:21:14.212Z,11.10
2018-06-14T03:22:17.633Z,11.20
2018-06-14T03:23:20.948Z,11.20
2018-06-14T03:24:24.295Z,11.10
2018-06-14T03:25:27.612Z,11.00
2018-06-14T03:26:30.980Z,11.00
2018-06-14T03:27:34.298Z,11.00
2018-06-14T03:28:37.635Z,11.10
2018-06-14T03:29:41.346Z,11.10
2018-06-14T03:30:51.032Z,11.30
2018-06-14T03:31:54.592Z,11.30
2018-06-14T03:32:57.920Z,11.40
2018-06-14T03:34:01.299Z,11.30
2018-06-14T03:36:07.723Z,11.20
2018-06-14T03:37:11.077Z,11.20
2018-06-14T03:38:14.403Z,11.30
2018-06-14T03:39:17.770Z,11.30
2018-06-14T03:40:21.146Z,11.30
2018-06-14T03:41:24.516Z,11.30
2018-06-14T03:42:27.841Z,11.30
2018-06-14T03:43:31.167Z,11.30
2018-06-14T03:44:35.754Z,11.30
2018-06-14T03:45:39.106Z,11.20
2018-06-14T03:46:42.459Z,11.20
2018-06-14T03:47:46.747Z,11.20
2018-06-14T03:48:50.079Z,11.30
2018-06-14T03:49:53.440Z,11.30
2018-06-14T03:50:56.760Z,11.30
2018-06-14T03:52:00.197Z,11.40
2018-06-14T03:53:03.481Z,11.40
2018-06-14T03:54:06.841Z,11.40
2018-06-14T03:55:10.212Z,11.40
2018-06-14T03:56:13.582Z,11.40
2018-06-14T03:57:16.909Z,11.40
2018-06-14T03:58:20.277Z,11.50
2018-06-14T03:59:23.659Z,11.50
2018-06-14T04:00:27.003Z,11.50
2018-06-14T04:01:30.329Z,11.40
2018-06-14T04:02:33.671Z,11.50
2018-06-14T04:03:37.005Z,11.40
2018-06-14T04:04:40.337Z,11.50
2018-06-14T04:05:43.707Z,11.50
2018-06-14T04:06:47.117Z,11.50
2018-06-14T04:07:50.456Z,11.60
2018-06-14T04:08:53.784Z,11.60
2018-06-14T04:09:57.327Z,11.60
2018-06-14T04:11:00.703Z,11.60
2018-06-14T04:12:04.057Z,11.60
2018-06-14T04:13:07.395Z,11.70
2018-06-14T04:14:10.715Z,11.70
2018-06-14T04:15:14.035Z,11.70
2018-06-14T04:16:17.399Z,11.70
2018-06-14T04:17:20.761Z,11.70
2018-06-14T04:18:24.080Z,11.80
2018-06-14T04:19:27.400Z,11.80
2018-06-14T04:20:31.737Z,11.80
2018-06-14T04:21:35.102Z,11.80
2018-06-14T04:22:38.424Z,11.90
2018-06-14T04:23:41.743Z,11.90
2018-06-14T04:24:45.453Z,11.90
2018-06-14T04:25:48.772Z,11.90
2018-06-14T04:26:52.271Z,12.00
2018-06-14T04:27:55.632Z,12.00
2018-06-14T04:28:58.953Z,12.00
2018-06-14T04:30:02.271Z,12.00
2018-06-14T04:31:05.606Z,12.00
2018-06-14T04:32:08.965Z,12.00
2018-06-14T04:33:12.331Z,12.00
2018-06-14T04:34:15.659Z,12.00
2018-06-14T04:35:18.978Z,12.00
2018-06-14T04:36:22.297Z,12.00
2018-06-14T04:37:25.651Z,11.90
2018-06-14T04:38:28.975Z,11.90
2018-06-14T04:39:32.340Z,11.90
2018-06-14T04:40:35.666Z,11.90
2018-06-14T04:41:39.040Z,11.90
2018-06-14T04:42:42.389Z,11.90
2018-06-14T04:43:45.721Z,11.90
2018-06-14T04:44:49.046Z,11.90
2018-06-14T04:45:52.430Z,11.90
2018-06-14T04:46:55.760Z,11.90
2018-06-14T04:47:59.262Z,11.90
2018-06-14T04:49:02.582Z,11.90
2018-06-14T04:50:06.047Z,11.80
2018-06-14T04:51:09.395Z,11.80
2018-06-14T04:52:12.730Z,11.90
2018-06-14T04:53:16.100Z,11.80
2018-06-14T04:54:19.419Z,11.80
2018-06-14T04:55:22.767Z,11.90
2018-06-14T04:56:26.125Z,12.00
2018-06-14T04:57:29.471Z,11.90
2018-06-14T04:58:32.832Z,12.00
2018-06-14T04:59:36.173Z,12.00
2018-06-14T05:00:39.503Z,12.00
2018-06-14T05:01:42.879Z,12.10
2018-06-14T05:02:46.235Z,12.10
2018-06-14T05:03:49.551Z,12.10
2018-06-14T05:04:52.927Z,12.10
2018-06-14T05:06:59.488Z,12.10
2018-06-14T05:08:02.877Z,12.20
2018-06-14T05:09:10.143Z,12.20
2018-06-14T05:10:13.475Z,12.20
2018-06-14T05:11:23.154Z,12.10
2018-06-14T05:12:26.501Z,12.10
2018-06-14T05:13:29.904Z,12.10
2018-06-14T05:14:33.231Z,12.00
2018-06-14T05:15:36.586Z,12.00
2018-06-14T05:16:39.929Z,12.00
2018-06-14T05:17:43.312Z,12.00
2018-06-14T05:18:46.640Z,12.00
2018-06-14T05:19:49.985Z,12.00
2018-06-14T05:20:54.101Z,12.00
2018-06-14T05:21:57.495Z,12.00
2018-06-14T05:23:00.827Z,12.00
2018-06-14T05:24:04.192Z,12.00
2018-06-14T05:25:07.521Z,12.00
2018-06-14T05:26:10.894Z,12.00
2018-06-14T05:27:14.244Z,12.00
2018-06-14T05:28:17.751Z,12.10
2018-06-14T05:29:21.111Z,12.10
2018-06-14T05:30:24.432Z,12.20
2018-06-14T05:31:27.770Z,12.30
2018-06-14T05:32:31.128Z,12.30
2018-06-14T05:33:34.448Z,12.50
2018-06-14T05:34:37.836Z,12.50
2018-06-14T05:35:41.175Z,12.70
2018-06-14T05:36:44.529Z,12.60
2018-06-14T05:37:47.895Z,12.70
2018-06-14T05:38:51.244Z,12.70
2018-06-14T05:39:54.565Z,12.70
2018-06-14T05:40:57.907Z,12.70
2018-06-14T05:42:01.338Z,12.80
2018-06-14T05:43:04.751Z,12.80
2018-06-14T05:44:08.148Z,12.80
2018-06-14T05:45:11.466Z,12.80
2018-06-14T05:46:14.800Z,12.90
2018-06-14T05:47:18.118Z,13.00
2018-06-14T05:48:21.480Z,13.00
2018-06-14T05:49:24.837Z,13.00
2018-06-14T05:50:28.171Z,13.00
2018-06-14T05:51:31.510Z,13.00
2018-06-14T05:52:34.844Z,13.10
2018-06-14T05:53:38.257Z,13.20
2018-06-14T05:54:41.599Z,13.30
2018-06-14T05:55:44.976Z,13.40
2018-06-14T05:56:48.304Z,13.50
2018-06-14T05:57:51.688Z,13.60
2018-06-14T05:58:55.110Z,13.70
2018-06-14T05:59:58.630Z,13.70
2018-06-14T06:01:02.145Z,13.70
2018-06-14T06:02:05.495Z,13.70
2018-06-14T06:03:08.844Z,13.70
2018-06-14T06:04:12.206Z,13.90
2018-06-14T06:05:15.842Z,14.00
2018-06-14T06:06:19.216Z,14.10
2018-06-14T06:07:22.548Z,14.20
2018-06-14T06:08:25.876Z,14.30
2018-06-14T06:09:29.215Z,14.40
2018-06-14T06:10:32.541Z,14.40
2018-06-14T06:11:35.942Z,14.40
2018-06-14T06:12:39.750Z,14.50
2018-06-14T06:13:43.231Z,14.50
2018-06-14T06:14:46.600Z,14.50
2018-06-14T06:15:49.946Z,14.50
2018-06-14T06:16:53.288Z,14.50
2018-06-14T06:17:56.634Z,14.50
2018-06-14T06:18:59.959Z,14.50
2018-06-14T06:20:03.563Z,14.50
2018-06-14T06:21:06.891Z,14.50
2018-06-14T06:22:10.208Z,14.40
2018-06-14T06:23:13.542Z,14.40
2018-06-14T06:24:16.900Z,14.50
2018-06-14T06:25:20.219Z,14.50
2018-06-14T06:26:23.612Z,14.40
2018-06-14T06:27:26.936Z,14.50
2018-06-14T06:28:30.288Z,14.50
2018-06-14T06:29:33.621Z,14.60
2018-06-14T06:30:37.139Z,14.50
2018-06-14T06:31:40.509Z,14.50
2018-06-14T06:32:43.839Z,14.50
2018-06-14T06:33:47.188Z,14.60
2018-06-14T06:34:50.952Z,14.50
2018-06-14T06:35:54.316Z,14.60
2018-06-14T06:36:57.638Z,14.70
2018-06-14T06:38:01.003Z,14.70
2018-06-14T06:39:08.187Z,14.70
2018-06-14T06:40:11.521Z,14.80
2018-06-14T06:41:14.879Z,14.80
2018-06-14T06:42:18.205Z,14.90
2018-06-14T06:43:21.608Z,14.90
2018-06-14T06:44:24.986Z,14.90
2018-06-14T06:45:28.320Z,14.90
2018-06-14T06:46:31.647Z,14.90
2018-06-14T06:47:35.013Z,15.00
2018-06-14T06:48:38.406Z,15.10
2018-06-14T06:49:41.720Z,15.10
2018-06-14T06:50:45.079Z,15.10
2018-06-14T06:51:48.472Z,15.10
2018-06-14T06:52:51.803Z,15.10
2018-06-14T06:53:55.178Z,15.10
2018-06-14T06:54:58.528Z,15.20
2018-06-14T06:56:01.879Z,15.20
2018-06-14T06:57:05.270Z,15.30
2018-06-14T06:58:08.622Z,15.40
2018-06-14T06:59:12.010Z,15.50
2018-06-14T07:00:15.335Z,15.60
2018-06-14T07:01:18.678Z,15.60
2018-06-14T07:02:22.134Z,15.70
2018-06-14T07:03:25.471Z,15.70
2018-06-14T07:04:28.807Z,15.80
2018-06-14T07:05:32.153Z,15.80
2018-06-14T07:06:35.500Z,15.80
2018-06-14T07:07:38.868Z,15.80
2018-06-14T07:08:42.280Z,15.80
2018-06-14T07:09:45.611Z,15.80
2018-06-14T07:10:48.954Z,15.80
2018-06-14T07:11:52.506Z,15.90
2018-06-14T07:12:55.904Z,15.90
2018-06-14T07:13:59.242Z,15.90
2018-06-14T07:15:02.622Z,16.00
2018-06-14T07:16:06.147Z,16.10
2018-06-14T07:17:09.492Z,16.00
2018-06-14T07:18:12.844Z,16.00
2018-06-14T07:19:16.224Z,15.90
2018-06-14T07:20:19.568Z,16.00
2018-06-14T07:21:22.952Z,16.10
2018-06-14T07:22:26.297Z,16.10
2018-06-14T07:23:29.631Z,16.10
2018-06-14T07:24:32.963Z,16.10
2018-06-14T07:25:36.343Z,16.20
2018-06-14T07:26:39.752Z,16.20
2018-06-14T07:27:43.150Z,16.30
2018-06-14T07:28:46.487Z,16.40
2018-06-14T07:29:49.849Z,16.40
2018-06-14T07:30:53.182Z,16.50
2018-06-14T07:31:56.524Z,16.50
2018-06-14T07:32:59.885Z,16.60
2018-06-14T07:34:03.202Z,16.70
2018-06-14T07:35:06.565Z,16.80
2018-06-14T07:36:09.893Z,16.90
2018-06-14T07:37:13.227Z,17.00
2018-06-14T07:38:16.588Z,17.00
2018-06-14T07:39:19.942Z,17.10
2018-06-14T07:40:23.295Z,17.10
2018-06-14T07:41:26.631Z,17.10
2018-06-14T07:42:30.077Z,17.00
2018-06-14T07:43:33.454Z,16.90
2018-06-14T07:44:36.791Z,16.90
2018-06-14T07:45:40.168Z,16.90
2018-06-14T07:46:43.493Z,17.00
2018-06-14T07:47:49.947Z,17.00
2018-06-14T07:48:53.445Z,17.00
2018-06-14T07:49:56.787Z,17.10
2018-06-14T07:51:00.124Z,17.00
2018-06-14T07:52:03.478Z,17.00
2018-06-14T07:54:10.042Z,16.90
2018-06-14T07:55:13.382Z,17.00
2018-06-14T07:56:16.703Z,17.00
2018-06-14T07:57:20.048Z,17.10
2018-06-14T07:58:23.459Z,17.20
2018-06-14T07:59:26.799Z,17.40
2018-06-14T08:00:30.132Z,17.40
2018-06-14T08:01:33.494Z,17.50
2018-06-14T08:02:36.837Z,17.40
2018-06-14T08:03:40.177Z,17.40
2018-06-14T08:04:43.540Z,17.50
2018-06-14T08:05:46.900Z,17.50
2018-06-14T08:06:50.229Z,17.60
2018-06-14T08:07:53.548Z,17.80
2018-06-14T08:08:56.883Z,17.80
2018-06-14T08:10:00.209Z,18.00
2018-06-14T08:11:03.595Z,18.10
2018-06-14T08:12:06.969Z,18.30
2018-06-14T08:13:10.524Z,18.30
2018-06-14T08:14:13.867Z,18.40
2018-06-14T08:15:17.195Z,18.40
2018-06-14T08:16:20.564Z,18.30
2018-06-14T08:17:23.899Z,18.20
2018-06-14T08:18:27.285Z,18.10
2018-06-14T08:19:30.612Z,18.10
2018-06-14T08:20:33.937Z,18.00
2018-06-14T08:21:37.305Z,17.90
2018-06-14T08:22:40.633Z,18.00
2018-06-14T08:23:43.972Z,18.10
2018-06-14T08:24:47.317Z,18.10
2018-06-14T08:25:53.659Z,18.10
2018-06-14T08:26:57.003Z,18.00
2018-06-14T08:28:00.344Z,18.20
2018-06-14T08:29:03.717Z,18.20
2018-06-14T08:30:07.043Z,18.40
2018-06-14T08:31:10.415Z,18.30
2018-06-14T08:32:13.737Z,18.40
2018-06-14T08:33:17.072Z,18.60
2018-06-14T08:35:23.485Z,19.00
2018-06-14T08:36:26.848Z,19.30
2018-06-14T08:37:36.521Z,19.30
2018-06-14T08:38:39.844Z,19.20
2018-06-14T08:39:43.191Z,19.20
2018-06-14T08:40:46.520Z,19.20
2018-06-14T08:41:50.020Z,19.20
2018-06-14T08:42:53.360Z,19.40
2018-06-14T08:43:56.685Z,19.20
2018-06-14T08:45:00.010Z,19.30
2018-06-14T08:46:03.352Z,19.30
2018-06-14T08:47:06.743Z,19.30
2018-06-14T08:48:10.251Z,19.30
2018-06-14T08:49:13.599Z,19.20
2018-06-14T08:52:23.442Z,19.00
2018-06-14T08:53:26.807Z,19.00
2018-06-14T08:54:30.164Z,19.10
2018-06-14T08:55:33.606Z,19.10
2018-06-14T08:56:36.946Z,19.00
2018-06-14T08:57:40.325Z,19.10
2018-06-14T08:58:43.688Z,19.20
2018-06-14T08:59:47.028Z,19.20
2018-06-14T09:00:50.370Z,19.10
2018-06-14T09:01:53.811Z,19.20
2018-06-14T09:02:57.164Z,19.00
2018-06-14T09:04:00.557Z,19.10
2018-06-14T09:05:03.937Z,19.00
2018-06-14T09:06:07.310Z,19.00
2018-06-14T09:07:10.628Z,19.10
2018-06-14T09:08:14.011Z,19.10
2018-06-14T09:09:17.390Z,19.10
2018-06-14T09:10:20.783Z,19.10
2018-06-14T09:11:24.112Z,19.10
2018-06-14T09:12:27.439Z,19.10
2018-06-14T09:13:30.776Z,19.10
2018-06-14T09:14:34.143Z,19.20
2018-06-14T09:16:40.796Z,19.40
2018-06-14T09:17:44.134Z,19.40
2018-06-14T09:18:47.463Z,19.50
2018-06-14T09:19:50.801Z,19.40
2018-06-14T09:20:54.196Z,19.60
2018-06-14T09:21:57.529Z,19.90
2018-06-14T09:23:00.867Z,19.90
2018-06-14T09:24:04.229Z,20.10
2018-06-14T09:25:07.628Z,20.10
2018-06-14T09:26:10.991Z,20.10
2018-06-14T09:27:14.514Z,20.00
2018-06-14T09:28:17.836Z,20.00
2018-06-14T09:29:21.169Z,19.90
2018-06-14T09:30:24.559Z,19.90
2018-06-14T09:31:27.896Z,19.90
2018-06-14T09:32:31.247Z,19.90
2018-06-14T09:33:34.607Z,19.90
2018-06-14T09:34:37.947Z,19.90
2018-06-14T09:35:41.293Z,19.90
2018-06-14T09:36:44.648Z,20.00
2018-06-14T09:37:47.971Z,19.90
2018-06-14T09:38:51.351Z,20.00
2018-06-14T09:39:54.678Z,20.00
2018-06-14T09:40:58.012Z,20.20
2018-06-14T09:42:01.350Z,20.40
2018-06-14T09:43:04.760Z,20.50
2018-06-14T09:44:08.074Z,20.60
2018-06-14T09:45:11.420Z,20.60
2018-06-14T09:46:14.987Z,20.60
2018-06-14T09:47:18.312Z,20.60
2018-06-14T09:48:21.632Z,20.70
2018-06-14T09:49:25.011Z,20.70
2018-06-14T09:50:28.356Z,20.80
2018-06-14T09:51:31.692Z,21.00
2018-06-14T09:52:35.036Z,20.90
2018-06-14T09:53:38.379Z,20.90
2018-06-14T09:54:41.736Z,20.70
2018-06-14T09:55:45.069Z,20.60
2018-06-14T09:56:48.440Z,20.50
2018-06-14T09:57:51.772Z,20.50
2018-06-14T09:58:55.084Z,20.40
2018-06-14T09:59:58.416Z,20.50
2018-06-14T10:01:01.752Z,20.60
2018-06-14T10:02:05.099Z,20.70
2018-06-14T10:03:08.431Z,20.90
2018-06-14T10:04:11.767Z,21.00
2018-06-14T10:05:15.105Z,21.00
2018-06-14T10:06:18.454Z,21.00
2018-06-14T10:07:21.813Z,21.00
2018-06-14T10:08:25.174Z,20.90
2018-06-14T10:09:28.505Z,21.00
2018-06-14T10:10:31.849Z,21.10
2018-06-14T10:11:35.167Z,21.20
2018-06-14T10:12:39.358Z,21.20
2018-06-14T10:14:45.736Z,21.20
2018-06-14T10:15:49.078Z,21.20
2018-06-14T10:16:52.417Z,21.20
2018-06-14T10:17:55.746Z,21.20
2018-06-14T10:18:59.097Z,21.10
2018-06-14T10:20:02.439Z,21.20
2018-06-14T10:22:08.922Z,21.40
2018-06-14T10:23:12.304Z,21.40
2018-06-14T10:24:15.857Z,21.40
2018-06-14T10:25:19.415Z,21.40
2018-06-14T10:26:22.747Z,21.40
2018-06-14T10:27:26.092Z,21.50
2018-06-14T10:29:32.506Z,21.70
2018-06-14T10:30:35.831Z,21.50
2018-06-14T10:31:39.208Z,21.60
2018-06-14T10:32:42.529Z,21.70
2018-06-14T10:33:45.917Z,21.70
2018-06-14T10:34:49.249Z,21.60
2018-06-14T10:35:52.575Z,21.40
2018-06-14T10:36:55.919Z,21.10
2018-06-14T10:37:59.273Z,21.00
2018-06-14T10:39:02.600Z,21.00
2018-06-14T10:40:05.975Z,21.00
2018-06-14T10:41:09.335Z,21.10
2018-06-14T10:42:12.678Z,21.30
2018-06-14T10:43:16.019Z,21.50
2018-06-14T10:44:19.387Z,21.70
2018-06-14T10:45:22.696Z,21.80
2018-06-14T10:46:26.050Z,21.80
2018-06-14T10:47:29.379Z,21.90
2018-06-14T10:48:32.707Z,22.00
2018-06-14T10:49:36.051Z,21.80
2018-06-14T10:50:39.370Z,21.60
2018-06-14T10:51:42.728Z,21.30
2018-06-14T10:52:46.063Z,21.20
2018-06-14T10:53:49.380Z,21.30
2018-06-14T10:54:52.700Z,21.30
2018-06-14T10:55:56.048Z,21.40
2018-06-14T10:56:59.400Z,21.40
2018-06-14T10:58:05.135Z,21.60
2018-06-14T10:59:12.436Z,21.60
2018-06-14T11:00:19.613Z,21.70
2018-06-14T11:01:27.109Z,21.70
2018-06-14T11:02:35.198Z,21.60
2018-06-14T11:03:42.150Z,21.40
2018-06-14T11:04:49.837Z,21.50
2018-06-14T11:05:56.762Z,21.60
2018-06-14T11:07:04.301Z,21.80
2018-06-14T11:08:11.704Z,21.60
2018-06-14T11:09:18.948Z,21.60
2018-06-14T11:10:26.733Z,21.80
2018-06-14T11:11:34.657Z,21.90
2018-06-14T11:12:41.697Z,21.80
2018-06-14T11:13:48.797Z,21.70
2018-06-14T11:14:56.260Z,21.70
2018-06-14T11:16:04.049Z,21.80
2018-06-14T11:17:11.139Z,21.80
2018-06-14T11:18:19.107Z,22.00
2018-06-14T11:19:26.077Z,21.90
2018-06-14T11:20:33.660Z,21.90
2018-06-14T11:21:41.142Z,21.90
2018-06-14T11:22:49.061Z,22.10
2018-06-14T11:23:56.438Z,22.00
2018-06-14T11:25:04.713Z,22.10
2018-06-14T11:26:12.637Z,22.30
2018-06-14T11:27:20.805Z,22.50
2018-06-14T11:28:28.696Z,22.50
2018-06-14T11:29:36.382Z,22.30
2018-06-14T11:30:43.681Z,22.30
2018-06-14T11:31:51.037Z,22.40
2018-06-14T11:32:58.520Z,22.50
2018-06-14T11:34:06.936Z,22.40
2018-06-14T11:35:14.213Z,22.50
2018-06-14T11:36:21.694Z,22.50
2018-06-14T11:37:28.854Z,22.60
2018-06-14T11:38:36.464Z,22.60
2018-06-14T11:39:44.330Z,22.80
2018-06-14T11:40:52.656Z,22.90
2018-06-14T11:42:00.431Z,22.90
2018-06-14T11:43:08.004Z,22.90
2018-06-14T11:44:15.178Z,22.90
2018-06-14T11:45:22.876Z,22.80
2018-06-14T11:46:30.347Z,22.80
2018-06-14T11:47:37.635Z,23.00
2018-06-14T11:48:45.002Z,22.90
2018-06-14T11:49:52.619Z,23.00
2018-06-14T11:50:59.762Z,23.00
2018-06-14T11:52:07.276Z,22.90
2018-06-14T11:53:13.732Z,22.70
2018-06-14T11:54:21.388Z,22.50
2018-06-14T11:55:28.163Z,22.50
2018-06-14T11:56:35.871Z,22.50
2018-06-14T11:57:43.013Z,22.60
2018-06-14T11:58:50.524Z,22.80
2018-06-14T11:59:58.286Z,22.90
2018-06-14T12:01:05.794Z,22.70
2018-06-14T12:02:13.250Z,22.60
2018-06-14T12:03:20.744Z,22.70
2018-06-14T12:04:28.111Z,22.70
2018-06-14T12:05:31.679Z,22.70
2018-06-14T12:06:35.012Z,22.80
2018-06-14T12:07:38.359Z,22.80
2018-06-14T12:08:41.688Z,22.90
2018-06-14T12:09:45.129Z,22.80
2018-06-14T12:10:48.464Z,22.80
2018-06-14T12:11:51.845Z,22.80
2018-06-14T12:12:55.192Z,22.70
2018-06-14T12:13:58.531Z,22.80
2018-06-14T12:15:01.954Z,22.90
2018-06-14T12:16:05.383Z,23.10
2018-06-14T12:17:09.044Z,23.20
2018-06-14T12:18:12.353Z,23.20
2018-06-14T12:19:15.715Z,23.10
2018-06-14T12:20:19.100Z,23.10
2018-06-14T12:21:22.481Z,22.90
2018-06-14T12:22:25.822Z,22.70
2018-06-14T12:23:29.275Z,22.60
2018-06-14T12:24:32.599Z,22.60
2018-06-14T12:25:35.968Z,22.70
2018-06-14T12:26:39.292Z,22.80
2018-06-14T12:27:42.673Z,22.90
2018-06-14T12:28:46.001Z,23.00
2018-06-14T12:29:49.335Z,23.10
2018-06-14T12:30:52.731Z,23.20
2018-06-14T12:31:56.072Z,23.20
2018-06-14T12:32:59.491Z,23.20
2018-06-14T12:34:02.848Z,23.30
2018-06-14T12:35:06.168Z,23.40
2018-06-14T12:36:09.531Z,23.50
2018-06-14T12:37:12.862Z,23.60
2018-06-14T12:38:16.205Z,23.50
2018-06-14T12:39:19.668Z,23.50
2018-06-14T12:40:23.028Z,23.60
2018-06-14T12:42:29.671Z,23.40
2018-06-14T12:43:33.047Z,23.60
2018-06-14T12:44:36.421Z,23.60
2018-06-14T12:45:39.741Z,23.60
2018-06-14T12:46:43.079Z,23.50
2018-06-14T12:47:46.413Z,23.50
2018-06-14T12:48:49.791Z,23.60
2018-06-14T12:49:53.152Z,23.70
2018-06-14T12:50:56.491Z,23.70
2018-06-14T12:53:02.873Z,23.60
2018-06-14T12:54:06.260Z,23.40
2018-06-14T12:55:09.596Z,23.30
2018-06-14T12:56:12.924Z,23.30
2018-06-14T12:57:16.256Z,23.10
2018-06-14T12:58:25.327Z,23.30
2018-06-14T12:59:33.420Z,23.40
2018-06-14T13:00:41.927Z,23.50
2018-06-14T13:01:50.947Z,23.50
2018-06-14T13:02:58.914Z,23.70
2018-06-14T13:04:07.752Z,23.70
2018-06-14T13:05:16.030Z,23.70
2018-06-14T13:06:23.717Z,23.70
2018-06-14T13:07:32.018Z,23.70
2018-06-14T13:08:40.319Z,23.70
2018-06-14T13:09:48.647Z,23.70
2018-06-14T13:10:56.640Z,23.70
2018-06-14T13:12:05.847Z,23.60
2018-06-14T13:13:13.755Z,23.50
2018-06-14T13:14:21.415Z,23.70
2018-06-14T13:15:29.228Z,23.70
2018-06-14T13:16:37.838Z,23.80
2018-06-14T13:17:46.320Z,24.00
2018-06-14T13:18:54.444Z,24.10
2018-06-14T13:20:02.739Z,24.20
2018-06-14T13:21:10.635Z,24.10
2018-06-14T13:22:18.294Z,24.00
2018-06-14T13:23:26.094Z,23.90
2018-06-14T13:24:42.404Z,23.90
2018-06-14T13:25:51.211Z,24.00
2018-06-14T13:26:58.885Z,24.00
2018-06-14T13:28:07.226Z,24.00
2018-06-14T13:29:16.010Z,24.10
2018-06-14T13:30:24.588Z,24.20
2018-06-14T13:31:32.278Z,24.30
2018-06-14T13:32:40.271Z,24.30
2018-06-14T13:33:48.307Z,24.50
2018-06-14T13:34:56.163Z,24.60
2018-06-14T13:36:05.302Z,24.70
2018-06-14T13:37:13.079Z,24.60
2018-06-14T13:38:21.057Z,24.50
2018-06-14T13:39:29.860Z,24.50
2018-06-14T13:40:37.356Z,24.40
2018-06-14T13:41:45.687Z,24.00
2018-06-14T13:42:53.445Z,24.00
2018-06-14T13:44:01.746Z,24.00
2018-06-14T13:45:09.843Z,24.00
2018-06-14T13:46:18.172Z,24.00
2018-06-14T13:47:27.468Z,24.10
2018-06-14T13:48:35.258Z,24.20
2018-06-14T13:49:43.379Z,24.20
2018-06-14T13:50:51.856Z,24.30
2018-06-14T13:51:59.862Z,24.50
2018-06-14T13:53:07.742Z,24.50
2018-06-14T13:54:16.658Z,24.40
2018-06-14T13:55:24.372Z,24.30
2018-06-14T13:56:33.054Z,24.50
2018-06-14T13:57:40.129Z,24.70
2018-06-14T13:58:47.915Z,24.70
2018-06-14T13:59:56.042Z,24.70
2018-06-14T14:01:03.570Z,24.60
2018-06-14T14:02:13.125Z,24.50
2018-06-14T14:03:21.277Z,24.50
2018-06-14T14:04:30.252Z,24.40
2018-06-14T14:05:33.995Z,24.30
2018-06-14T14:06:37.617Z,24.30
2018-06-14T14:07:41.257Z,24.40
2018-06-14T14:08:44.898Z,24.30
2018-06-14T14:09:48.554Z,24.30
2018-06-14T14:10:52.202Z,24.50
2018-06-14T14:11:55.829Z,24.50
2018-06-14T14:12:59.461Z,24.60
2018-06-14T14:14:03.044Z,24.50
2018-06-14T14:15:06.744Z,24.60
2018-06-14T14:16:10.384Z,24.50
2018-06-14T14:17:14.124Z,24.50
2018-06-14T14:18:17.746Z,24.60
2018-06-14T14:20:24.680Z,24.70
2018-06-14T14:21:28.343Z,24.70
2018-06-14T14:22:31.951Z,24.70
2018-06-14T14:23:35.610Z,24.80
2018-06-14T14:24:39.244Z,24.80
2018-06-14T14:25:42.876Z,24.70
2018-06-14T14:26:46.556Z,24.60
2018-06-14T14:27:50.207Z,24.70
2018-06-14T14:28:53.828Z,24.80
2018-06-14T14:29:57.501Z,24.80
2018-06-14T14:31:01.141Z,24.60
2018-06-14T14:32:04.882Z,24.40
2018-06-14T14:33:08.525Z,24.40
2018-06-14T14:34:12.119Z,24.20
2018-06-14T14:35:15.784Z,24.20
2018-06-14T14:36:19.424Z,24.20
2018-06-14T14:37:23.152Z,24.40
2018-06-14T14:38:26.792Z,24.50
2018-06-14T14:39:30.471Z,24.60
2018-06-14T14:40:34.127Z,24.70
2018-06-14T14:41:37.777Z,24.80
2018-06-14T14:42:41.419Z,24.80
2018-06-14T14:43:45.080Z,24.50
2018-06-14T14:44:48.704Z,24.40
2018-06-14T14:45:52.316Z,24.20
2018-06-14T14:46:56.018Z,24.10
2018-06-14T14:47:59.685Z,24.00
2018-06-14T14:49:03.300Z,24.10
2018-06-14T14:50:06.913Z,24.20
2018-06-14T14:51:10.535Z,24.20
2018-06-14T14:52:14.225Z,24.30